sensor_id;sensor_type;location;lat;lon;timestamp;temperature;humidity
45619;DHT22;31343;47.520;19.144;2023-12-29T00:02:10;1.80;99.90
45619;DHT22;31343;47.520;19.144;2023-12-29T00:04:36;1.80;99.90
45619;DHT22;31343;47.520;19.144;2023-12-29T00:07:02;1.80;99.90
45619;DHT22;31343;47.520;19.144;2023-12-29T00:09:28;1.80;99.90
45619;DHT22;31343;47.520;19.144;2023-12-29T00:11:54;1.90;99.90
45619;DHT22;31343;47.520;19.144;2023-12-29T00:14:20;1.80;99.90
45619;DHT22;31343;47.520;19.144;2023-12-29T00:16:46;1.80;99.90
45619;DHT22;31343;47.520;19.144;2023-12-29T00:19:12;1.80;99.90
45619;DHT22;31343;47.520;19.144;2023-12-29T00:21:38;1.80;99.90
45619;DHT22;31343;47.520;19.144;2023-12-29T00:24:06;1.90;99.90
45619;DHT22;31343;47.520;19.144;2023-12-29T00:26:32;1.80;99.90
45619;DHT22;31343;47.520;19.144;2023-12-29T00:28:59;1.70;99.90
45619;DHT22;31343;47.520;19.144;2023-12-29T00:31:25;1.70;99.90
45619;DHT22;31343;47.520;19.144;2023-12-29T00:33:51;1.70;99.90
45619;DHT22;31343;47.520;19.144;2023-12-29T00:36:19;1.70;99.90
45619;DHT22;31343;47.520;19.144;2023-12-29T00:38:45;1.80;99.90
45619;DHT22;31343;47.520;19.144;2023-12-29T00:41:11;1.80;99.90
45619;DHT22;31343;47.520;19.144;2023-12-29T00:43:37;1.80;99.90
45619;DHT22;31343;47.520;19.144;2023-12-29T00:46:04;1.90;99.90
45619;DHT22;31343;47.520;19.144;2023-12-29T00:48:30;1.80;99.90
45619;DHT22;31343;47.520;19.144;2023-12-29T00:50:56;1.90;99.90
45619;DHT22;31343;47.520;19.144;2023-12-29T00:53:22;2.00;99.90
45619;DHT22;31343;47.520;19.144;2023-12-29T00:55:48;2.00;99.90
45619;DHT22;31343;47.520;19.144;2023-12-29T00:58:13;1.90;99.90
45619;DHT22;31343;47.520;19.144;2023-12-29T01:00:39;2.00;99.90
45619;DHT22;31343;47.520;19.144;2023-12-29T01:03:05;1.90;99.90
45619;DHT22;31343;47.520;19.144;2023-12-29T01:05:31;2.00;99.90
45619;DHT22;31343;47.520;19.144;2023-12-29T01:07:57;1.90;99.90
45619;DHT22;31343;47.520;19.144;2023-12-29T01:10:22;1.90;99.90
45619;DHT22;31343;47.520;19.144;2023-12-29T01:12:48;1.80;99.90
45619;DHT22;31343;47.520;19.144;2023-12-29T01:15:15;1.90;99.90
45619;DHT22;31343;47.520;19.144;2023-12-29T01:17:41;1.90;99.90
45619;DHT22;31343;47.520;19.144;2023-12-29T01:20:07;1.90;99.90
45619;DHT22;31343;47.520;19.144;2023-12-29T01:22:33;1.90;99.90
45619;DHT22;31343;47.520;19.144;2023-12-29T01:24:59;2.00;99.90
45619;DHT22;31343;47.520;19.144;2023-12-29T01:27:25;1.90;99.90
45619;DHT22;31343;47.520;19.144;2023-12-29T01:29:51;1.90;99.90
45619;DHT22;31343;47.520;19.144;2023-12-29T01:32:21;1.80;99.90
45619;DHT22;31343;47.520;19.144;2023-12-29T01:34:47;1.90;99.90
45619;DHT22;31343;47.520;19.144;2023-12-29T01:37:13;1.90;99.90
45619;DHT22;31343;47.520;19.144;2023-12-29T01:39:39;1.90;99.90
45619;DHT22;31343;47.520;19.144;2023-12-29T01:42:08;1.90;99.90
45619;DHT22;31343;47.520;19.144;2023-12-29T01:44:33;1.90;99.90
45619;DHT22;31343;47.520;19.144;2023-12-29T01:47:01;1.90;99.90
45619;DHT22;31343;47.520;19.144;2023-12-29T01:49:27;1.80;99.90
45619;DHT22;31343;47.520;19.144;2023-12-29T01:51:58;1.80;99.90
45619;DHT22;31343;47.520;19.144;2023-12-29T01:54:27;1.80;99.90
45619;DHT22;31343;47.520;19.144;2023-12-29T01:56:57;1.90;99.90
45619;DHT22;31343;47.520;19.144;2023-12-29T01:59:25;2.00;99.90
45619;DHT22;31343;47.520;19.144;2023-12-29T02:01:51;1.90;99.90
45619;DHT22;31343;47.520;19.144;2023-12-29T02:04:19;1.90;99.90
45619;DHT22;31343;47.520;19.144;2023-12-29T02:06:44;1.90;99.90
45619;DHT22;31343;47.520;19.144;2023-12-29T02:09:11;1.90;99.90
45619;DHT22;31343;47.520;19.144;2023-12-29T02:11:38;1.80;99.90
45619;DHT22;31343;47.520;19.144;2023-12-29T02:14:04;1.80;99.90
45619;DHT22;31343;47.520;19.144;2023-12-29T02:19:38;1.80;99.90
45619;DHT22;31343;47.520;19.144;2023-12-29T02:22:05;1.80;99.90
45619;DHT22;31343;47.520;19.144;2023-12-29T02:24:32;1.90;99.90
45619;DHT22;31343;47.520;19.144;2023-12-29T02:30:01;1.90;99.90
45619;DHT22;31343;47.520;19.144;2023-12-29T02:32:29;1.80;99.90
45619;DHT22;31343;47.520;19.144;2023-12-29T02:34:56;1.80;99.90
45619;DHT22;31343;47.520;19.144;2023-12-29T02:37:23;1.70;99.90
45619;DHT22;31343;47.520;19.144;2023-12-29T02:39:50;1.80;99.90
45619;DHT22;31343;47.520;19.144;2023-12-29T02:42:15;1.80;99.90
45619;DHT22;31343;47.520;19.144;2023-12-29T02:44:41;1.90;99.90
45619;DHT22;31343;47.520;19.144;2023-12-29T02:47:07;1.80;99.90
45619;DHT22;31343;47.520;19.144;2023-12-29T02:49:33;1.90;99.90
45619;DHT22;31343;47.520;19.144;2023-12-29T02:51:58;2.00;99.90
45619;DHT22;31343;47.520;19.144;2023-12-29T02:54:24;1.90;99.90
45619;DHT22;31343;47.520;19.144;2023-12-29T02:56:50;2.00;99.90
45619;DHT22;31343;47.520;19.144;2023-12-29T02:59:15;1.90;99.90
45619;DHT22;31343;47.520;19.144;2023-12-29T03:01:41;2.00;99.90
45619;DHT22;31343;47.520;19.144;2023-12-29T03:04:07;2.10;99.90
45619;DHT22;31343;47.520;19.144;2023-12-29T03:06:33;2.20;99.90
45619;DHT22;31343;47.520;19.144;2023-12-29T03:08:59;2.30;99.90
45619;DHT22;31343;47.520;19.144;2023-12-29T03:11:24;2.20;99.90
45619;DHT22;31343;47.520;19.144;2023-12-29T03:13:50;2.20;99.90
45619;DHT22;31343;47.520;19.144;2023-12-29T03:16:16;2.20;99.90
45619;DHT22;31343;47.520;19.144;2023-12-29T03:18:42;2.10;99.90
45619;DHT22;31343;47.520;19.144;2023-12-29T03:21:08;2.10;99.90
45619;DHT22;31343;47.520;19.144;2023-12-29T03:23:34;2.10;99.90
45619;DHT22;31343;47.520;19.144;2023-12-29T03:26:00;2.20;99.90
45619;DHT22;31343;47.520;19.144;2023-12-29T03:28:26;2.10;99.90
45619;DHT22;31343;47.520;19.144;2023-12-29T03:30:52;2.10;99.90
45619;DHT22;31343;47.520;19.144;2023-12-29T03:33:17;2.10;99.90
45619;DHT22;31343;47.520;19.144;2023-12-29T03:35:43;2.00;99.90
45619;DHT22;31343;47.520;19.144;2023-12-29T03:38:09;2.00;99.90
45619;DHT22;31343;47.520;19.144;2023-12-29T03:40:34;2.10;99.90
45619;DHT22;31343;47.520;19.144;2023-12-29T03:43:00;2.20;99.90
45619;DHT22;31343;47.520;19.144;2023-12-29T03:45:26;2.10;99.90
45619;DHT22;31343;47.520;19.144;2023-12-29T03:47:51;2.20;99.90
45619;DHT22;31343;47.520;19.144;2023-12-29T03:50:17;2.10;99.90
45619;DHT22;31343;47.520;19.144;2023-12-29T03:52:43;2.00;99.90
45619;DHT22;31343;47.520;19.144;2023-12-29T03:55:08;2.00;99.90
45619;DHT22;31343;47.520;19.144;2023-12-29T03:57:36;1.90;99.90
45619;DHT22;31343;47.520;19.144;2023-12-29T04:00:02;2.00;99.90
45619;DHT22;31343;47.520;19.144;2023-12-29T04:02:28;1.90;99.90
45619;DHT22;31343;47.520;19.144;2023-12-29T04:04:54;1.80;99.90
45619;DHT22;31343;47.520;19.144;2023-12-29T04:07:19;1.90;99.90
45619;DHT22;31343;47.520;19.144;2023-12-29T04:09:45;1.90;99.90
45619;DHT22;31343;47.520;19.144;2023-12-29T04:12:11;2.00;99.90
45619;DHT22;31343;47.520;19.144;2023-12-29T04:14:36;1.90;99.90
45619;DHT22;31343;47.520;19.144;2023-12-29T04:17:02;1.90;99.90
45619;DHT22;31343;47.520;19.144;2023-12-29T04:19:29;1.90;99.90
45619;DHT22;31343;47.520;19.144;2023-12-29T04:21:55;1.90;99.90
45619;DHT22;31343;47.520;19.144;2023-12-29T04:24:21;1.80;99.90
45619;DHT22;31343;47.520;19.144;2023-12-29T04:26:46;1.70;99.90
45619;DHT22;31343;47.520;19.144;2023-12-29T04:29:12;1.60;99.90
45619;DHT22;31343;47.520;19.144;2023-12-29T04:31:38;1.70;99.90
45619;DHT22;31343;47.520;19.144;2023-12-29T04:34:03;1.70;99.90
45619;DHT22;31343;47.520;19.144;2023-12-29T04:36:29;1.70;99.90
45619;DHT22;31343;47.520;19.144;2023-12-29T04:38:55;1.70;99.90
45619;DHT22;31343;47.520;19.144;2023-12-29T04:41:20;1.70;99.90
45619;DHT22;31343;47.520;19.144;2023-12-29T04:43:46;1.70;99.90
45619;DHT22;31343;47.520;19.144;2023-12-29T04:46:12;1.70;99.90
45619;DHT22;31343;47.520;19.144;2023-12-29T04:48:38;1.60;99.90
45619;DHT22;31343;47.520;19.144;2023-12-29T04:51:03;1.60;99.90
45619;DHT22;31343;47.520;19.144;2023-12-29T04:53:29;1.50;99.90
45619;DHT22;31343;47.520;19.144;2023-12-29T04:55:55;1.50;99.90
45619;DHT22;31343;47.520;19.144;2023-12-29T04:58:21;1.60;99.90
45619;DHT22;31343;47.520;19.144;2023-12-29T05:00:46;1.60;99.90
45619;DHT22;31343;47.520;19.144;2023-12-29T05:03:12;1.60;99.90
45619;DHT22;31343;47.520;19.144;2023-12-29T05:05:38;1.50;99.90
45619;DHT22;31343;47.520;19.144;2023-12-29T05:08:04;1.50;99.90
45619;DHT22;31343;47.520;19.144;2023-12-29T05:10:29;1.50;99.90
45619;DHT22;31343;47.520;19.144;2023-12-29T05:12:55;1.50;99.90
45619;DHT22;31343;47.520;19.144;2023-12-29T05:15:21;1.50;99.90
45619;DHT22;31343;47.520;19.144;2023-12-29T05:17:46;1.60;99.90
45619;DHT22;31343;47.520;19.144;2023-12-29T05:20:12;1.60;99.90
45619;DHT22;31343;47.520;19.144;2023-12-29T05:22:38;1.50;99.90
45619;DHT22;31343;47.520;19.144;2023-12-29T05:25:04;1.60;99.90
45619;DHT22;31343;47.520;19.144;2023-12-29T05:27:30;1.60;99.90
45619;DHT22;31343;47.520;19.144;2023-12-29T05:29:57;1.60;99.90
45619;DHT22;31343;47.520;19.144;2023-12-29T05:32:22;1.60;99.90
45619;DHT22;31343;47.520;19.144;2023-12-29T05:34:48;1.60;99.90
45619;DHT22;31343;47.520;19.144;2023-12-29T05:37:14;1.60;99.90
45619;DHT22;31343;47.520;19.144;2023-12-29T05:39:43;1.60;99.90
45619;DHT22;31343;47.520;19.144;2023-12-29T05:42:09;1.50;99.90
45619;DHT22;31343;47.520;19.144;2023-12-29T05:44:38;1.40;99.90
45619;DHT22;31343;47.520;19.144;2023-12-29T05:47:07;1.50;99.90
45619;DHT22;31343;47.520;19.144;2023-12-29T05:49:32;1.50;99.90
45619;DHT22;31343;47.520;19.144;2023-12-29T05:52:04;1.50;99.90
45619;DHT22;31343;47.520;19.144;2023-12-29T05:54:30;1.40;99.90
45619;DHT22;31343;47.520;19.144;2023-12-29T05:56:55;1.50;99.90
45619;DHT22;31343;47.520;19.144;2023-12-29T05:59:21;1.60;99.90
45619;DHT22;31343;47.520;19.144;2023-12-29T06:01:47;1.60;99.90
45619;DHT22;31343;47.520;19.144;2023-12-29T06:04:12;1.50;99.90
45619;DHT22;31343;47.520;19.144;2023-12-29T06:06:38;1.50;99.90
45619;DHT22;31343;47.520;19.144;2023-12-29T06:09:04;1.60;99.90
45619;DHT22;31343;47.520;19.144;2023-12-29T06:11:30;1.60;99.90
45619;DHT22;31343;47.520;19.144;2023-12-29T06:13:56;1.50;99.90
45619;DHT22;31343;47.520;19.144;2023-12-29T06:16:22;1.60;99.90
45619;DHT22;31343;47.520;19.144;2023-12-29T06:18:48;1.70;99.90
45619;DHT22;31343;47.520;19.144;2023-12-29T06:21:14;1.70;99.90
45619;DHT22;31343;47.520;19.144;2023-12-29T06:23:40;1.80;99.90
45619;DHT22;31343;47.520;19.144;2023-12-29T06:26:14;1.80;99.90
45619;DHT22;31343;47.520;19.144;2023-12-29T06:28:40;1.80;99.90
45619;DHT22;31343;47.520;19.144;2023-12-29T06:31:06;1.70;99.90
45619;DHT22;31343;47.520;19.144;2023-12-29T06:33:31;1.70;99.90
45619;DHT22;31343;47.520;19.144;2023-12-29T06:35:57;1.70;99.90
45619;DHT22;31343;47.520;19.144;2023-12-29T06:38:23;1.70;99.90
45619;DHT22;31343;47.520;19.144;2023-12-29T06:40:49;1.60;99.90
45619;DHT22;31343;47.520;19.144;2023-12-29T06:43:14;1.60;99.90
45619;DHT22;31343;47.520;19.144;2023-12-29T06:45:40;1.70;99.90
45619;DHT22;31343;47.520;19.144;2023-12-29T06:48:06;1.50;99.90
45619;DHT22;31343;47.520;19.144;2023-12-29T06:50:32;1.60;99.90
45619;DHT22;31343;47.520;19.144;2023-12-29T06:52:58;1.70;99.90
45619;DHT22;31343;47.520;19.144;2023-12-29T06:55:25;1.50;99.90
45619;DHT22;31343;47.520;19.144;2023-12-29T06:57:51;1.50;99.90
45619;DHT22;31343;47.520;19.144;2023-12-29T07:00:17;1.50;99.90
45619;DHT22;31343;47.520;19.144;2023-12-29T07:02:42;1.50;99.90
45619;DHT22;31343;47.520;19.144;2023-12-29T07:05:08;1.60;99.90
45619;DHT22;31343;47.520;19.144;2023-12-29T07:07:37;1.40;99.90
45619;DHT22;31343;47.520;19.144;2023-12-29T07:10:04;1.50;99.90
45619;DHT22;31343;47.520;19.144;2023-12-29T07:12:31;1.50;99.90
45619;DHT22;31343;47.520;19.144;2023-12-29T07:14:57;1.60;99.90
45619;DHT22;31343;47.520;19.144;2023-12-29T07:17:23;1.70;99.90
45619;DHT22;31343;47.520;19.144;2023-12-29T07:19:49;1.80;99.90
45619;DHT22;31343;47.520;19.144;2023-12-29T07:22:15;1.80;99.90
45619;DHT22;31343;47.520;19.144;2023-12-29T07:24:41;1.80;99.90
45619;DHT22;31343;47.520;19.144;2023-12-29T07:27:07;1.80;99.90
45619;DHT22;31343;47.520;19.144;2023-12-29T07:29:33;1.70;99.90
45619;DHT22;31343;47.520;19.144;2023-12-29T07:32:00;1.80;99.90
45619;DHT22;31343;47.520;19.144;2023-12-29T07:34:26;1.80;99.90
45619;DHT22;31343;47.520;19.144;2023-12-29T07:36:52;1.70;99.90
45619;DHT22;31343;47.520;19.144;2023-12-29T07:39:19;1.80;99.90
45619;DHT22;31343;47.520;19.144;2023-12-29T07:41:45;1.80;99.90
45619;DHT22;31343;47.520;19.144;2023-12-29T07:44:11;1.80;99.90
45619;DHT22;31343;47.520;19.144;2023-12-29T07:46:40;1.90;99.90
45619;DHT22;31343;47.520;19.144;2023-12-29T07:49:06;1.70;99.90
45619;DHT22;31343;47.520;19.144;2023-12-29T07:51:32;1.70;99.90
45619;DHT22;31343;47.520;19.144;2023-12-29T07:53:58;1.80;99.90
45619;DHT22;31343;47.520;19.144;2023-12-29T07:56:24;1.80;99.90
45619;DHT22;31343;47.520;19.144;2023-12-29T07:58:49;1.80;99.90
45619;DHT22;31343;47.520;19.144;2023-12-29T08:01:15;1.70;99.90
45619;DHT22;31343;47.520;19.144;2023-12-29T08:03:42;1.70;99.90
45619;DHT22;31343;47.520;19.144;2023-12-29T08:06:08;1.80;99.90
45619;DHT22;31343;47.520;19.144;2023-12-29T08:08:33;1.70;99.90
45619;DHT22;31343;47.520;19.144;2023-12-29T08:10:59;1.80;99.90
45619;DHT22;31343;47.520;19.144;2023-12-29T08:13:25;2.00;99.90
45619;DHT22;31343;47.520;19.144;2023-12-29T08:15:51;1.90;99.90
45619;DHT22;31343;47.520;19.144;2023-12-29T08:18:17;2.00;99.90
45619;DHT22;31343;47.520;19.144;2023-12-29T08:20:43;2.10;99.90
45619;DHT22;31343;47.520;19.144;2023-12-29T08:23:09;2.30;99.90
45619;DHT22;31343;47.520;19.144;2023-12-29T08:25:35;2.40;99.90
45619;DHT22;31343;47.520;19.144;2023-12-29T08:28:02;2.30;99.90
45619;DHT22;31343;47.520;19.144;2023-12-29T08:30:28;2.20;99.90
45619;DHT22;31343;47.520;19.144;2023-12-29T08:32:53;2.20;99.90
45619;DHT22;31343;47.520;19.144;2023-12-29T08:35:19;2.30;99.90
45619;DHT22;31343;47.520;19.144;2023-12-29T08:37:46;2.30;99.90
45619;DHT22;31343;47.520;19.144;2023-12-29T08:40:12;2.30;99.90
45619;DHT22;31343;47.520;19.144;2023-12-29T08:42:37;2.30;99.90
45619;DHT22;31343;47.520;19.144;2023-12-29T08:45:04;2.20;99.90
45619;DHT22;31343;47.520;19.144;2023-12-29T08:47:30;2.30;99.90
45619;DHT22;31343;47.520;19.144;2023-12-29T08:49:56;2.40;99.90
45619;DHT22;31343;47.520;19.144;2023-12-29T08:52:21;2.50;99.90
45619;DHT22;31343;47.520;19.144;2023-12-29T08:54:47;2.40;99.90
45619;DHT22;31343;47.520;19.144;2023-12-29T08:57:13;2.40;99.90
45619;DHT22;31343;47.520;19.144;2023-12-29T08:59:38;2.50;99.90
45619;DHT22;31343;47.520;19.144;2023-12-29T09:02:04;2.60;99.90
45619;DHT22;31343;47.520;19.144;2023-12-29T09:04:30;2.60;99.90
45619;DHT22;31343;47.520;19.144;2023-12-29T09:06:56;2.60;99.90
45619;DHT22;31343;47.520;19.144;2023-12-29T09:09:22;2.70;99.90
45619;DHT22;31343;47.520;19.144;2023-12-29T09:11:49;2.80;99.90
45619;DHT22;31343;47.520;19.144;2023-12-29T09:14:15;2.70;99.90
45619;DHT22;31343;47.520;19.144;2023-12-29T09:16:41;2.80;99.90
45619;DHT22;31343;47.520;19.144;2023-12-29T09:19:08;2.80;99.90
45619;DHT22;31343;47.520;19.144;2023-12-29T09:21:34;2.80;99.90
45619;DHT22;31343;47.520;19.144;2023-12-29T09:24:00;2.80;99.90
45619;DHT22;31343;47.520;19.144;2023-12-29T09:26:26;2.80;99.90
45619;DHT22;31343;47.520;19.144;2023-12-29T09:28:52;2.80;99.90
45619;DHT22;31343;47.520;19.144;2023-12-29T09:31:17;2.80;99.90
45619;DHT22;31343;47.520;19.144;2023-12-29T09:33:43;2.80;99.90
45619;DHT22;31343;47.520;19.144;2023-12-29T09:36:09;2.90;99.90
45619;DHT22;31343;47.520;19.144;2023-12-29T09:38:35;2.90;99.90
45619;DHT22;31343;47.520;19.144;2023-12-29T09:41:05;2.80;99.90
45619;DHT22;31343;47.520;19.144;2023-12-29T09:43:32;2.80;99.90
45619;DHT22;31343;47.520;19.144;2023-12-29T09:45:58;2.90;99.90
45619;DHT22;31343;47.520;19.144;2023-12-29T09:48:27;3.10;99.90
45619;DHT22;31343;47.520;19.144;2023-12-29T09:50:54;3.30;99.90
45619;DHT22;31343;47.520;19.144;2023-12-29T09:53:23;3.40;99.90
45619;DHT22;31343;47.520;19.144;2023-12-29T09:55:51;3.70;99.90
45619;DHT22;31343;47.520;19.144;2023-12-29T09:58:21;3.90;99.90
45619;DHT22;31343;47.520;19.144;2023-12-29T10:00:48;4.00;99.90
45619;DHT22;31343;47.520;19.144;2023-12-29T10:03:14;4.20;99.90
45619;DHT22;31343;47.520;19.144;2023-12-29T10:05:40;4.40;99.90
45619;DHT22;31343;47.520;19.144;2023-12-29T10:08:07;4.70;99.90
45619;DHT22;31343;47.520;19.144;2023-12-29T10:10:35;5.00;99.90
45619;DHT22;31343;47.520;19.144;2023-12-29T10:13:04;5.20;99.90
45619;DHT22;31343;47.520;19.144;2023-12-29T10:15:36;5.30;99.90
45619;DHT22;31343;47.520;19.144;2023-12-29T10:20:54;5.60;99.90
45619;DHT22;31343;47.520;19.144;2023-12-29T10:23:42;5.80;99.90
45619;DHT22;31343;47.520;19.144;2023-12-29T10:26:11;6.00;99.90
45619;DHT22;31343;47.520;19.144;2023-12-29T10:28:37;6.20;99.90
45619;DHT22;31343;47.520;19.144;2023-12-29T10:31:04;6.40;99.90
45619;DHT22;31343;47.520;19.144;2023-12-29T10:33:30;6.50;99.90
45619;DHT22;31343;47.520;19.144;2023-12-29T10:35:59;6.60;99.90
45619;DHT22;31343;47.520;19.144;2023-12-29T10:38:33;6.60;99.90
45619;DHT22;31343;47.520;19.144;2023-12-29T10:41:15;6.60;99.90
45619;DHT22;31343;47.520;19.144;2023-12-29T10:43:46;6.70;99.90
45619;DHT22;31343;47.520;19.144;2023-12-29T10:46:12;6.90;99.90
45619;DHT22;31343;47.520;19.144;2023-12-29T10:48:39;7.00;99.90
45619;DHT22;31343;47.520;19.144;2023-12-29T10:51:05;7.00;99.90
45619;DHT22;31343;47.520;19.144;2023-12-29T10:53:33;7.10;99.90
45619;DHT22;31343;47.520;19.144;2023-12-29T10:55:59;7.20;99.90
45619;DHT22;31343;47.520;19.144;2023-12-29T10:58:29;7.10;99.90
45619;DHT22;31343;47.520;19.144;2023-12-29T11:00:58;7.20;99.90
45619;DHT22;31343;47.520;19.144;2023-12-29T11:03:24;7.20;99.90
45619;DHT22;31343;47.520;19.144;2023-12-29T11:05:51;7.30;99.90
45619;DHT22;31343;47.520;19.144;2023-12-29T11:08:23;7.60;99.90
45619;DHT22;31343;47.520;19.144;2023-12-29T11:10:50;7.80;99.90
45619;DHT22;31343;47.520;19.144;2023-12-29T11:13:15;7.90;99.90
45619;DHT22;31343;47.520;19.144;2023-12-29T11:15:45;8.10;99.90
45619;DHT22;31343;47.520;19.144;2023-12-29T11:18:15;8.40;99.90
45619;DHT22;31343;47.520;19.144;2023-12-29T11:20:43;8.70;99.90
45619;DHT22;31343;47.520;19.144;2023-12-29T11:23:10;8.80;99.90
45619;DHT22;31343;47.520;19.144;2023-12-29T11:25:39;9.00;99.90
45619;DHT22;31343;47.520;19.144;2023-12-29T11:28:06;9.40;99.90
45619;DHT22;31343;47.520;19.144;2023-12-29T11:30:34;9.50;99.90
45619;DHT22;31343;47.520;19.144;2023-12-29T11:33:05;9.20;99.90
45619;DHT22;31343;47.520;19.144;2023-12-29T11:40:58;9.20;99.90
45619;DHT22;31343;47.520;19.144;2023-12-29T11:43:26;9.50;99.90
45619;DHT22;31343;47.520;19.144;2023-12-29T11:45:52;9.80;99.90
45619;DHT22;31343;47.520;19.144;2023-12-29T11:53:55;10.10;99.90
45619;DHT22;31343;47.520;19.144;2023-12-29T11:56:21;10.20;99.90
45619;DHT22;31343;47.520;19.144;2023-12-29T11:58:47;9.90;99.90
45619;DHT22;31343;47.520;19.144;2023-12-29T12:01:13;9.90;99.90
45619;DHT22;31343;47.520;19.144;2023-12-29T12:03:38;9.90;99.90
45619;DHT22;31343;47.520;19.144;2023-12-29T12:06:04;9.90;99.90
45619;DHT22;31343;47.520;19.144;2023-12-29T12:08:31;10.10;99.90
45619;DHT22;31343;47.520;19.144;2023-12-29T12:13:57;10.00;99.90
45619;DHT22;31343;47.520;19.144;2023-12-29T12:19:11;10.20;99.90
45619;DHT22;31343;47.520;19.144;2023-12-29T12:21:37;10.20;99.90
45619;DHT22;31343;47.520;19.144;2023-12-29T12:24:04;10.20;99.90
45619;DHT22;31343;47.520;19.144;2023-12-29T12:26:34;10.40;99.90
45619;DHT22;31343;47.520;19.144;2023-12-29T12:29:03;10.30;99.90
45619;DHT22;31343;47.520;19.144;2023-12-29T12:31:29;10.60;99.90
45619;DHT22;31343;47.520;19.144;2023-12-29T12:33:58;10.90;99.90
45619;DHT22;31343;47.520;19.144;2023-12-29T12:36:26;11.10;99.90
45619;DHT22;31343;47.520;19.144;2023-12-29T12:38:55;11.50;99.90
45619;DHT22;31343;47.520;19.144;2023-12-29T12:41:22;11.90;99.90
45619;DHT22;31343;47.520;19.144;2023-12-29T12:44:12;12.10;99.90
45619;DHT22;31343;47.520;19.144;2023-12-29T12:49:14;11.50;99.90
45619;DHT22;31343;47.520;19.144;2023-12-29T12:51:40;11.30;99.90
45619;DHT22;31343;47.520;19.144;2023-12-29T12:54:07;11.30;99.90
45619;DHT22;31343;47.520;19.144;2023-12-29T12:56:33;11.30;99.90
45619;DHT22;31343;47.520;19.144;2023-12-29T12:59:02;11.00;99.90
45619;DHT22;31343;47.520;19.144;2023-12-29T13:01:28;11.00;99.90
45619;DHT22;31343;47.520;19.144;2023-12-29T13:03:56;11.00;99.90
45619;DHT22;31343;47.520;19.144;2023-12-29T13:06:23;10.70;99.90
45619;DHT22;31343;47.520;19.144;2023-12-29T13:08:50;10.30;99.90
45619;DHT22;31343;47.520;19.144;2023-12-29T13:11:21;10.30;99.90
45619;DHT22;31343;47.520;19.144;2023-12-29T13:13:51;10.10;99.90
45619;DHT22;31343;47.520;19.144;2023-12-29T13:16:36;9.90;99.90
45619;DHT22;31343;47.520;19.144;2023-12-29T13:19:21;9.60;99.90
45619;DHT22;31343;47.520;19.144;2023-12-29T13:21:52;9.40;99.90
45619;DHT22;31343;47.520;19.144;2023-12-29T13:24:21;9.30;99.90
45619;DHT22;31343;47.520;19.144;2023-12-29T13:26:50;9.50;99.90
45619;DHT22;31343;47.520;19.144;2023-12-29T13:29:21;9.80;99.90
45619;DHT22;31343;47.520;19.144;2023-12-29T13:31:53;9.80;99.90
45619;DHT22;31343;47.520;19.144;2023-12-29T13:34:37;9.80;99.90
45619;DHT22;31343;47.520;19.144;2023-12-29T13:42:38;9.40;99.90
45619;DHT22;31343;47.520;19.144;2023-12-29T13:45:08;9.50;99.90
45619;DHT22;31343;47.520;19.144;2023-12-29T13:47:36;9.50;99.90
45619;DHT22;31343;47.520;19.144;2023-12-29T13:50:03;9.60;99.90
45619;DHT22;31343;47.520;19.144;2023-12-29T13:52:29;9.40;99.90
45619;DHT22;31343;47.520;19.144;2023-12-29T13:54:55;9.40;99.90
45619;DHT22;31343;47.520;19.144;2023-12-29T13:57:33;9.20;99.90
45619;DHT22;31343;47.520;19.144;2023-12-29T14:00:15;9.20;99.90
45619;DHT22;31343;47.520;19.144;2023-12-29T14:02:44;9.20;99.90
45619;DHT22;31343;47.520;19.144;2023-12-29T14:08:39;9.20;99.90
45619;DHT22;31343;47.520;19.144;2023-12-29T14:11:08;9.20;99.90
45619;DHT22;31343;47.520;19.144;2023-12-29T14:13:34;9.20;99.90
45619;DHT22;31343;47.520;19.144;2023-12-29T14:16:01;9.10;99.90
45619;DHT22;31343;47.520;19.144;2023-12-29T14:21:01;9.10;99.90
45619;DHT22;31343;47.520;19.144;2023-12-29T14:23:27;9.10;99.90
45619;DHT22;31343;47.520;19.144;2023-12-29T14:25:53;8.90;99.90
45619;DHT22;31343;47.520;19.144;2023-12-29T14:28:26;8.80;99.90
45619;DHT22;31343;47.520;19.144;2023-12-29T14:31:01;8.70;99.90
45619;DHT22;31343;47.520;19.144;2023-12-29T14:33:27;8.70;99.90
45619;DHT22;31343;47.520;19.144;2023-12-29T14:35:53;8.60;99.90
45619;DHT22;31343;47.520;19.144;2023-12-29T14:38:19;8.50;99.90
45619;DHT22;31343;47.520;19.144;2023-12-29T14:40:46;8.40;99.90
45619;DHT22;31343;47.520;19.144;2023-12-29T14:43:12;8.40;99.90
45619;DHT22;31343;47.520;19.144;2023-12-29T14:45:37;8.40;99.90
45619;DHT22;31343;47.520;19.144;2023-12-29T14:48:03;8.30;99.90
45619;DHT22;31343;47.520;19.144;2023-12-29T14:50:29;8.30;99.90
45619;DHT22;31343;47.520;19.144;2023-12-29T14:52:55;8.30;99.90
45619;DHT22;31343;47.520;19.144;2023-12-29T14:55:21;8.30;99.90
45619;DHT22;31343;47.520;19.144;2023-12-29T14:57:47;8.40;99.90
45619;DHT22;31343;47.520;19.144;2023-12-29T15:00:13;8.40;99.90
45619;DHT22;31343;47.520;19.144;2023-12-29T15:02:39;8.40;99.90
45619;DHT22;31343;47.520;19.144;2023-12-29T15:05:04;8.40;99.90
45619;DHT22;31343;47.520;19.144;2023-12-29T15:07:30;8.30;99.90
45619;DHT22;31343;47.520;19.144;2023-12-29T15:09:59;8.30;99.90
45619;DHT22;31343;47.520;19.144;2023-12-29T15:12:25;8.30;99.90
45619;DHT22;31343;47.520;19.144;2023-12-29T15:14:51;8.30;99.90
45619;DHT22;31343;47.520;19.144;2023-12-29T15:17:17;8.20;99.90
45619;DHT22;31343;47.520;19.144;2023-12-29T15:19:42;8.20;99.90
45619;DHT22;31343;47.520;19.144;2023-12-29T15:22:08;8.10;99.90
45619;DHT22;31343;47.520;19.144;2023-12-29T15:24:34;8.10;99.90
45619;DHT22;31343;47.520;19.144;2023-12-29T15:27:00;8.00;99.90
45619;DHT22;31343;47.520;19.144;2023-12-29T15:29:26;8.00;99.90
45619;DHT22;31343;47.520;19.144;2023-12-29T15:31:56;8.00;99.90
45619;DHT22;31343;47.520;19.144;2023-12-29T15:34:22;7.80;99.90
45619;DHT22;31343;47.520;19.144;2023-12-29T15:36:48;7.80;99.90
45619;DHT22;31343;47.520;19.144;2023-12-29T15:39:14;7.80;99.90
45619;DHT22;31343;47.520;19.144;2023-12-29T15:41:39;7.80;99.90
45619;DHT22;31343;47.520;19.144;2023-12-29T15:44:05;7.80;99.90
45619;DHT22;31343;47.520;19.144;2023-12-29T15:46:33;7.60;99.90
45619;DHT22;31343;47.520;19.144;2023-12-29T15:48:59;7.60;99.90
45619;DHT22;31343;47.520;19.144;2023-12-29T15:51:26;7.40;99.90
45619;DHT22;31343;47.520;19.144;2023-12-29T15:53:52;7.30;99.90
45619;DHT22;31343;47.520;19.144;2023-12-29T15:56:21;7.30;99.90
45619;DHT22;31343;47.520;19.144;2023-12-29T15:58:47;7.30;99.90
45619;DHT22;31343;47.520;19.144;2023-12-29T16:01:23;7.20;99.90
45619;DHT22;31343;47.520;19.144;2023-12-29T16:03:51;7.20;99.90
45619;DHT22;31343;47.520;19.144;2023-12-29T16:06:23;7.20;99.90
45619;DHT22;31343;47.520;19.144;2023-12-29T16:08:50;7.20;99.90